createdAt,value
2017-10-15T00:01:23.875Z,71.30
2017-10-15T00:06:26.426Z,71.70
2017-10-15T00:11:29.755Z,71.60
2017-10-15T00:16:32.324Z,71.60
2017-10-15T00:21:34.859Z,71.60
2017-10-15T00:26:37.422Z,71.40
2017-10-15T00:31:39.970Z,71.50
2017-10-15T00:36:42.534Z,71.70
2017-10-15T00:41:45.091Z,71.60
2017-10-15T00:46:47.656Z,71.70
2017-10-15T00:51:50.222Z,71.80
2017-10-15T00:56:53.540Z,71.80
2017-10-15T01:01:56.082Z,71.80
2017-10-15T01:06:58.624Z,71.60
2017-10-15T01:12:01.971Z,72.00
2017-10-15T01:17:04.519Z,71.90
2017-10-15T01:22:07.063Z,72.00
2017-10-15T01:27:09.619Z,71.90
2017-10-15T01:32:12.179Z,71.90
2017-10-15T01:37:14.740Z,71.90
2017-10-15T01:42:18.074Z,72.10
2017-10-15T01:47:20.622Z,72.00
2017-10-15T01:52:23.166Z,72.40
2017-10-15T01:57:25.723Z,72.20
2017-10-15T02:02:28.273Z,72.20
2017-10-15T02:07:30.844Z,72.60
2017-10-15T02:12:34.191Z,73.80
2017-10-15T02:17:36.719Z,73.70
2017-10-15T02:22:39.266Z,73.60
2017-10-15T02:27:42.590Z,73.70
2017-10-15T02:32:45.133Z,73.70
2017-10-15T02:37:47.693Z,73.80
2017-10-15T02:42:50.988Z,74.10
2017-10-15T02:47:53.531Z,74.00
2017-10-15T02:52:56.073Z,74.40
2017-10-15T02:57:58.622Z,74.60
2017-10-15T03:03:01.152Z,74.50
2017-10-15T03:08:03.683Z,74.00
2017-10-15T03:13:06.224Z,73.90
2017-10-15T03:18:08.778Z,73.80
2017-10-15T03:23:11.311Z,74.20
2017-10-15T03:28:13.842Z,74.40
2017-10-15T03:33:16.382Z,74.00
2017-10-15T03:38:18.926Z,74.80
2017-10-15T03:43:21.531Z,74.70
2017-10-15T03:48:24.068Z,74.50
2017-10-15T03:53:26.602Z,75.10
2017-10-15T03:58:29.144Z,75.70
2017-10-15T04:03:31.691Z,75.60
2017-10-15T04:08:34.210Z,76.00
2017-10-15T04:13:36.761Z,75.90
2017-10-15T04:18:40.075Z,76.50
2017-10-15T04:23:42.626Z,76.50
2017-10-15T04:28:45.183Z,77.00
2017-10-15T04:33:47.719Z,77.50
2017-10-15T04:38:50.270Z,76.90
2017-10-15T04:43:52.827Z,77.90
2017-10-15T04:48:55.363Z,77.30
2017-10-15T04:53:57.906Z,77.70
2017-10-15T04:59:00.459Z,77.00
2017-10-15T05:04:03.759Z,77.50
2017-10-15T05:09:06.296Z,77.50
2017-10-15T05:14:08.971Z,77.90
2017-10-15T05:19:11.516Z,77.80
2017-10-15T05:24:14.064Z,77.60
2017-10-15T05:29:16.598Z,77.90
2017-10-15T05:34:19.292Z,77.90
2017-10-15T05:39:21.830Z,77.70
2017-10-15T05:44:24.382Z,77.90
2017-10-15T05:49:26.933Z,78.20
2017-10-15T05:54:29.468Z,78.10
2017-10-15T05:59:32.050Z,78.30
2017-10-15T06:04:34.591Z,78.30
2017-10-15T06:09:37.223Z,78.80
2017-10-15T06:14:39.772Z,79.20
2017-10-15T06:19:43.089Z,78.10
2017-10-15T06:24:46.405Z,78.50
2017-10-15T06:29:48.944Z,78.60
2017-10-15T06:34:51.467Z,78.60
2017-10-15T06:39:54.033Z,78.90
2017-10-15T06:44:56.571Z,79.00
2017-10-15T06:49:59.118Z,78.70
2017-10-15T06:55:01.654Z,79.20
2017-10-15T07:00:04.213Z,78.90
2017-10-15T07:05:06.758Z,78.20
2017-10-15T07:10:09.339Z,79.50
2017-10-15T07:15:11.892Z,78.50
2017-10-15T07:20:14.451Z,78.40
2017-10-15T07:25:17.020Z,78.40
2017-10-15T07:30:19.597Z,78.20
2017-10-15T07:35:22.162Z,78.80
2017-10-15T07:40:24.752Z,78.40
2017-10-15T07:45:27.322Z,79.00
2017-10-15T07:50:29.897Z,78.80
2017-10-15T07:55:33.211Z,78.70
2017-10-15T08:00:35.779Z,78.60
2017-10-15T08:05:38.347Z,79.80
2017-10-15T08:10:40.878Z,79.20
2017-10-15T08:15:43.418Z,80.50
2017-10-15T08:20:45.982Z,80.60
2017-10-15T08:25:49.309Z,79.30
2017-10-15T08:30:51.865Z,79.20
2017-10-15T08:35:54.428Z,80.10
2017-10-15T08:40:57.031Z,80.70
2017-10-15T08:45:59.593Z,80.60
2017-10-15T08:51:02.141Z,80.70
2017-10-15T08:56:04.710Z,80.40
2017-10-15T09:01:07.267Z,80.10
2017-10-15T09:06:09.895Z,80.00
2017-10-15T09:11:13.977Z,79.90
2017-10-15T09:16:16.571Z,80.00
2017-10-15T09:21:19.125Z,79.60
2017-10-15T09:26:21.760Z,79.40
2017-10-15T09:31:24.319Z,79.20
2017-10-15T09:36:26.870Z,78.80
2017-10-15T09:41:29.426Z,78.10
2017-10-15T09:46:32.739Z,77.30
2017-10-15T09:51:35.294Z,77.20
2017-10-15T09:56:37.848Z,77.00
2017-10-15T10:01:40.412Z,76.40
2017-10-15T10:06:42.986Z,75.80
2017-10-15T10:11:45.551Z,74.80
2017-10-15T10:16:48.136Z,74.00
2017-10-15T10:21:50.712Z,73.40
2017-10-15T10:26:53.266Z,73.60
2017-10-15T10:31:55.829Z,73.30
2017-10-15T10:36:58.409Z,73.50
2017-10-15T10:42:00.972Z,74.30
2017-10-15T10:47:03.527Z,74.40
2017-10-15T10:52:06.088Z,74.30
2017-10-15T10:57:08.634Z,74.20
2017-10-15T11:02:11.238Z,73.80
2017-10-15T11:07:13.803Z,73.00
2017-10-15T11:12:16.399Z,73.20
2017-10-15T11:17:18.955Z,73.20
2017-10-15T11:22:21.620Z,70.30
2017-10-15T11:27:24.169Z,67.30
2017-10-15T11:32:26.741Z,68.70
2017-10-15T11:37:29.309Z,70.70
2017-10-15T11:42:31.857Z,69.90
2017-10-15T11:47:34.845Z,69.00
2017-10-15T11:52:37.427Z,64.60
2017-10-15T11:57:41.642Z,63.50
2017-10-15T12:02:44.189Z,63.50
2017-10-15T12:07:46.735Z,64.10
2017-10-15T12:12:49.352Z,63.20
2017-10-15T12:17:51.901Z,63.70
2017-10-15T12:22:54.538Z,61.60
2017-10-15T12:27:57.104Z,62.50
2017-10-15T12:32:59.681Z,60.00
2017-10-15T12:38:02.236Z,61.20
2017-10-15T12:43:04.799Z,61.10
2017-10-15T12:48:07.348Z,61.40
2017-10-15T12:53:14.820Z,60.40
2017-10-15T12:58:17.368Z,61.90
2017-10-15T13:03:19.935Z,59.30
2017-10-15T13:08:22.488Z,58.60
2017-10-15T13:13:25.055Z,61.30
2017-10-15T13:18:27.611Z,63.20
2017-10-15T13:23:30.173Z,58.80
2017-10-15T13:28:32.716Z,59.00
2017-10-15T13:33:35.273Z,58.50
2017-10-15T13:38:37.811Z,57.40
2017-10-15T13:43:40.357Z,57.00
2017-10-15T13:48:42.914Z,58.10
2017-10-15T13:53:45.467Z,58.00
2017-10-15T13:58:48.045Z,57.90
2017-10-15T14:03:50.593Z,58.50
2017-10-15T14:08:53.170Z,57.40
2017-10-15T14:13:55.715Z,57.70
2017-10-15T14:18:58.268Z,56.10
2017-10-15T14:24:00.826Z,56.80
2017-10-15T14:29:03.383Z,58.40
2017-10-15T14:34:05.939Z,57.40
2017-10-15T14:39:08.497Z,56.50
2017-10-15T14:44:11.073Z,56.10
2017-10-15T14:49:13.621Z,57.00
2017-10-15T14:54:16.192Z,57.40
2017-10-15T14:59:18.762Z,57.00
2017-10-15T15:04:21.326Z,57.70
2017-10-15T15:09:23.876Z,58.30
2017-10-15T15:14:26.428Z,59.60
2017-10-15T15:19:29.048Z,58.90
2017-10-15T15:24:31.635Z,59.00
2017-10-15T15:29:34.241Z,59.40
2017-10-15T15:34:36.796Z,59.80
2017-10-15T15:39:39.344Z,60.00
2017-10-15T15:44:41.983Z,60.30
2017-10-15T15:49:44.540Z,60.60
2017-10-15T15:54:47.099Z,60.80
2017-10-15T15:59:49.659Z,60.90
2017-10-15T16:04:52.243Z,61.20
2017-10-15T16:09:54.835Z,61.60
2017-10-15T16:14:58.132Z,61.70
2017-10-15T16:20:00.763Z,61.70
2017-10-15T16:25:03.327Z,61.90
2017-10-15T16:30:06.643Z,61.90
2017-10-15T16:35:09.210Z,61.80
2017-10-15T16:40:11.755Z,61.90
2017-10-15T16:45:14.307Z,62.20
2017-10-15T16:50:16.903Z,61.60
2017-10-15T16:55:19.475Z,61.80
2017-10-15T17:00:22.035Z,61.60
2017-10-15T17:05:24.637Z,62.00
2017-10-15T17:10:27.192Z,62.20
2017-10-15T17:15:29.761Z,62.10
2017-10-15T17:20:32.299Z,63.00
2017-10-15T17:25:34.874Z,64.20
2017-10-15T17:30:37.450Z,64.30
2017-10-15T17:35:40.764Z,64.90
2017-10-15T17:40:43.341Z,64.80
2017-10-15T17:45:46.671Z,65.30
2017-10-15T17:50:49.978Z,65.30
2017-10-15T17:55:52.556Z,65.30
2017-10-15T18:00:55.095Z,65.60
2017-10-15T18:05:57.646Z,65.60
2017-10-15T18:11:00.204Z,65.90
2017-10-15T18:16:02.768Z,66.30
2017-10-15T18:21:05.319Z,66.60
2017-10-15T18:26:07.865Z,66.50
2017-10-15T18:31:10.799Z,66.70
2017-10-15T18:36:13.326Z,66.80
2017-10-15T18:41:15.889Z,67.00
2017-10-15T18:46:18.480Z,66.90
2017-10-15T18:51:21.799Z,67.30
2017-10-15T18:56:24.384Z,67.30
2017-10-15T19:01:27.141Z,67.30
2017-10-15T19:06:29.714Z,67.80
2017-10-15T19:11:32.390Z,67.70
2017-10-15T19:16:35.745Z,68.20
2017-10-15T19:21:38.361Z,68.10
2017-10-15T19:26:40.941Z,68.40
2017-10-15T19:31:43.483Z,69.10
2017-10-15T19:36:46.123Z,68.60
2017-10-15T19:41:48.771Z,68.80
2017-10-15T19:46:51.326Z,68.90
2017-10-15T19:51:53.937Z,69.00
2017-10-15T19:56:56.486Z,69.20
2017-10-15T20:01:59.044Z,69.20
2017-10-15T20:07:01.602Z,69.50
2017-10-15T20:12:04.123Z,69.60
2017-10-15T20:17:06.675Z,69.50
2017-10-15T20:22:10.010Z,69.40
2017-10-15T20:27:12.576Z,69.40
2017-10-15T20:32:15.128Z,69.60
2017-10-15T20:37:17.670Z,69.70
2017-10-15T20:42:20.235Z,69.70
2017-10-15T20:47:22.812Z,70.00
2017-10-15T20:52:26.135Z,69.80
2017-10-15T20:57:28.842Z,69.80
2017-10-15T21:02:31.408Z,69.80
2017-10-15T21:07:33.963Z,69.80
2017-10-15T21:12:36.522Z,70.10
2017-10-15T21:17:39.856Z,70.10
2017-10-15T21:22:42.405Z,70.10
2017-10-15T21:27:44.969Z,70.10
2017-10-15T21:32:47.531Z,70.20
2017-10-15T21:37:50.115Z,70.20
2017-10-15T21:42:52.663Z,70.60
2017-10-15T21:47:55.209Z,70.60
2017-10-15T21:52:57.773Z,70.30
2017-10-15T21:58:00.340Z,70.40
2017-10-15T22:03:02.875Z,70.90
2017-10-15T22:08:05.427Z,70.50
2017-10-15T22:13:08.744Z,70.80
2017-10-15T22:18:16.886Z,70.80
2017-10-15T22:23:19.462Z,70.80
2017-10-15T22:28:22.019Z,70.70
2017-10-15T22:33:24.563Z,70.70
2017-10-15T22:38:27.963Z,71.10
2017-10-15T22:43:30.531Z,71.10
2017-10-15T22:48:33.086Z,71.10
2017-10-15T22:53:36.410Z,71.00
2017-10-15T22:58:39.720Z,71.30
2017-10-15T23:03:42.299Z,71.30
2017-10-15T23:08:44.843Z,71.10
2017-10-15T23:13:47.407Z,71.10
2017-10-15T23:18:49.965Z,71.10
2017-10-15T23:23:52.506Z,71.10
2017-10-15T23:28:55.823Z,70.80
2017-10-15T23:33:58.379Z,70.80
2017-10-15T23:39:00.940Z,70.60
2017-10-15T23:44:03.483Z,70.90
2017-10-15T23:49:06.031Z,70.50
2017-10-15T23:54:08.567Z,70.70
2017-10-15T23:59:11.113Z,71.10
